createdAt,value
2023-06-08T00:01:49.596Z,101539.94
2023-06-08T00:06:54.082Z,101524.56
2023-06-08T00:11:56.500Z,101522.19
2023-06-08T00:16:58.757Z,101523.47
2023-06-08T00:22:06.191Z,101530.50
2023-06-08T00:27:09.379Z,101520.34
2023-06-08T00:32:12.784Z,101509.50
2023-06-08T00:37:14.801Z,101516.69
2023-06-08T00:42:16.934Z,101504.84
2023-06-08T00:47:19.239Z,101498.53
2023-06-08T00:52:23.282Z,101494.28
2023-06-08T00:57:29.577Z,101493.44
2023-06-08T01:02:33.300Z,101491.63
2023-06-08T01:07:57.017Z,101482.47
2023-06-08T01:13:10.564Z,101474.72
2023-06-08T01:18:18.843Z,101472.03
2023-06-08T01:23:46.446Z,101472.31
2023-06-08T01:28:50.243Z,101466.69
2023-06-08T01:33:52.395Z,101475.31
2023-06-08T01:39:25.220Z,101473.19
2023-06-08T01:44:30.206Z,101470.09
2023-06-08T01:49:34.155Z,101455.84
2023-06-08T01:54:36.195Z,101450.63
2023-06-08T01:59:38.273Z,101445.28
2023-06-08T02:04:40.374Z,101438.09
2023-06-08T02:09:43.507Z,101438.09
2023-06-08T02:14:47.636Z,101434.44
2023-06-08T02:19:49.613Z,101435.59
2023-06-08T02:24:51.839Z,101428.25
2023-06-08T02:29:53.942Z,101424.72
2023-06-08T02:34:57.213Z,101429.94
2023-06-08T02:40:02.724Z,101418.28
2023-06-08T02:45:09.628Z,101425.59
2023-06-08T02:50:11.896Z,101430.09
2023-06-08T02:55:14.702Z,101419.53
2023-06-08T03:00:17.055Z,101426.44
2023-06-08T03:05:48.272Z,101414.75
2023-06-08T03:10:50.638Z,101413.47
2023-06-08T03:15:54.015Z,101434.75
2023-06-08T03:20:56.685Z,101423.19
2023-06-08T03:25:59.975Z,101422.91
2023-06-08T03:31:02.454Z,101417.44
2023-06-08T03:36:13.288Z,101430.25
2023-06-08T03:41:18.084Z,101415.84
2023-06-08T03:46:25.923Z,101416.72
2023-06-08T03:51:29.625Z,101407.16
2023-06-08T03:56:32.034Z,101403.63
2023-06-08T04:01:37.358Z,101400.66
2023-06-08T04:06:42.029Z,101409.69
2023-06-08T04:11:45.448Z,101407.84
2023-06-08T04:16:48.169Z,101406.28
2023-06-08T04:21:57.939Z,101402.47
2023-06-08T04:27:02.120Z,101414.88
2023-06-08T04:32:05.402Z,101412.50
2023-06-08T04:37:07.973Z,101411.66
2023-06-08T04:42:11.449Z,101409.81
2023-06-08T04:47:16.096Z,101418.53
2023-06-08T04:52:20.631Z,101408.13
2023-06-08T04:57:24.039Z,101412.50
2023-06-08T05:02:26.460Z,101416.28
2023-06-08T05:07:28.688Z,101416.03
2023-06-08T05:12:30.955Z,101403.63
2023-06-08T05:17:33.095Z,101408.97
2023-06-08T05:22:35.416Z,101410.81
2023-06-08T05:27:38.485Z,101413.34
2023-06-08T05:32:40.786Z,101416.88
2023-06-08T05:37:42.888Z,101400.66
2023-06-08T05:42:45.090Z,101395.31
2023-06-08T05:47:47.347Z,101402.78
2023-06-08T05:52:49.731Z,101403.63
2023-06-08T05:57:51.861Z,101412.38
2023-06-08T06:02:54.023Z,101412.38
2023-06-08T06:07:56.265Z,101414.19
2023-06-08T06:12:58.427Z,101416.03
2023-06-08T06:18:00.680Z,101421.22
2023-06-08T06:23:02.892Z,101415.03
2023-06-08T06:28:12.461Z,101420.66
2023-06-08T06:33:14.650Z,101423.06
2023-06-08T06:38:16.777Z,101422.22
2023-06-08T06:43:19.302Z,101432.19
2023-06-08T06:48:27.039Z,101429.41
2023-06-08T06:53:32.160Z,101433.91
2023-06-08T06:58:34.970Z,101437.56
2023-06-08T07:03:41.903Z,101423.06
2023-06-08T07:08:44.757Z,101422.22
2023-06-08T07:13:48.216Z,101420.53
2023-06-08T07:18:51.276Z,101417.72
2023-06-08T07:24:46.558Z,101424.91
2023-06-08T07:29:15.504Z,101428.41
2023-06-08T07:34:17.699Z,101441.94
2023-06-08T07:39:21.819Z,101432.91
2023-06-08T07:44:23.964Z,101442.47
2023-06-08T07:49:26.146Z,101442.91
2023-06-08T07:54:28.280Z,101442.78
2023-06-08T07:59:30.352Z,101454.16
2023-06-08T08:04:32.585Z,101452.34
2023-06-08T08:09:35.037Z,101445.16
2023-06-08T08:14:38.208Z,101427.56
2023-06-08T08:19:41.873Z,101446.13
2023-06-08T08:24:43.920Z,101435.31
2023-06-08T08:29:46.051Z,101439.25
2023-06-08T08:34:48.084Z,101444.31
2023-06-08T08:39:50.185Z,101454.16
2023-06-08T08:44:56.940Z,101445.03
2023-06-08T08:50:08.248Z,101448.69
2023-06-08T08:55:25.728Z,101441.78
2023-06-08T09:00:34.561Z,101431.78
2023-06-08T09:05:36.685Z,101428.41
2023-06-08T09:10:39.258Z,101428.97
2023-06-08T09:15:44.003Z,101435.19
2023-06-08T09:20:47.334Z,101430.94
2023-06-08T09:25:49.622Z,101425.44
2023-06-08T09:30:53.331Z,101425.19
2023-06-08T09:35:58.655Z,101438.09
2023-06-08T09:41:30.256Z,101422.78
2023-06-08T09:46:47.114Z,101445.88
2023-06-08T09:51:54.562Z,101421.22
2023-06-08T09:57:02.120Z,101428.97
2023-06-08T10:02:20.152Z,101432.75
2023-06-08T10:07:27.154Z,101427.16
2023-06-08T10:12:30.400Z,101420.66
2023-06-08T10:17:34.875Z,101416.72
2023-06-08T10:22:39.052Z,101426.56
2023-06-08T10:27:51.434Z,101419.13
2023-06-08T10:32:54.094Z,101422.66
2023-06-08T10:38:09.292Z,101411.94
2023-06-08T10:43:31.847Z,101417.00
2023-06-08T10:48:38.643Z,101406.28
2023-06-08T10:53:57.279Z,101403.19
2023-06-08T10:58:59.298Z,101399.97
2023-06-08T11:04:05.677Z,101399.00
2023-06-08T11:09:12.141Z,101395.03
2023-06-08T11:14:20.198Z,101389.69
2023-06-08T11:19:26.232Z,101380.53
2023-06-08T11:24:28.905Z,101387.56
2023-06-08T11:29:30.996Z,101384.91
2023-06-08T11:34:33.481Z,101374.91
2023-06-08T11:39:42.619Z,101384.75
2023-06-08T11:44:44.603Z,101364.91
2023-06-08T11:49:58.931Z,101361.53
2023-06-08T11:55:06.068Z,101371.94
2023-06-08T12:00:10.677Z,101366.31
2023-06-08T12:05:22.404Z,101368.56
2023-06-08T12:10:39.383Z,101364.06
2023-06-08T12:15:42.658Z,101361.41
2023-06-08T12:20:52.619Z,101357.75
2023-06-08T12:25:54.719Z,101355.75
2023-06-08T12:30:58.150Z,101342.38
2023-06-08T12:36:00.207Z,101347.03
2023-06-08T12:41:02.233Z,101342.97
2023-06-08T12:46:04.252Z,101342.97
2023-06-08T12:51:06.455Z,101346.19
2023-06-08T12:56:08.519Z,101353.94
2023-06-08T13:01:10.629Z,101340.69
2023-06-08T13:06:14.259Z,101333.22
2023-06-08T13:11:17.563Z,101325.06
2023-06-08T13:16:19.664Z,101326.44
2023-06-08T13:21:22.103Z,101325.06
2023-06-08T13:26:25.345Z,101319.72
2023-06-08T13:31:27.796Z,101317.31
2023-06-08T13:36:30.898Z,101305.31
2023-06-08T13:41:51.984Z,101293.94
2023-06-08T13:46:54.478Z,101301.25
2023-06-08T13:51:56.781Z,101309.88
2023-06-08T13:56:58.839Z,101307.88
2023-06-08T14:02:03.194Z,101294.91
2023-06-08T14:07:06.726Z,101308.00
2023-06-08T14:12:09.498Z,101299.84
2023-06-08T14:17:11.551Z,101299.16
2023-06-08T14:22:15.681Z,101291.13
2023-06-08T14:27:17.710Z,101291.41
2023-06-08T14:32:19.910Z,101291.94
2023-06-08T14:37:21.930Z,101280.13
2023-06-08T14:42:24.029Z,101277.03
2023-06-08T14:47:26.161Z,101273.22
2023-06-08T14:52:28.251Z,101268.03
2023-06-08T14:57:30.414Z,101271.13
2023-06-08T15:02:32.824Z,101271.97
2023-06-08T15:07:37.279Z,101283.91
2023-06-08T15:12:39.757Z,101275.06
2023-06-08T15:17:41.860Z,101259.84
2023-06-08T15:22:45.443Z,101256.03
2023-06-08T15:27:47.536Z,101254.94
2023-06-08T15:32:49.538Z,101243.09
2023-06-08T15:37:51.666Z,101249.13
2023-06-08T15:42:53.627Z,101244.63
2023-06-08T15:47:55.716Z,101243.22
2023-06-08T15:52:57.745Z,101221.78
2023-06-08T15:57:59.726Z,101242.97
2023-06-08T16:03:01.855Z,101236.47
2023-06-08T16:08:04.061Z,101230.25
2023-06-08T16:13:06.124Z,101244.63
2023-06-08T16:18:08.414Z,101218.44
2023-06-08T16:23:11.121Z,101209.13
2023-06-08T16:28:13.324Z,101196.72
2023-06-08T16:33:15.397Z,101198.16
2023-06-08T16:38:19.136Z,101190.41
2023-06-08T16:43:21.602Z,101193.91
2023-06-08T16:48:23.782Z,101199.56
2023-06-08T16:53:25.970Z,101191.09
2023-06-08T16:58:27.991Z,101188.28
2023-06-08T17:03:30.106Z,101184.19
2023-06-08T17:08:32.336Z,101179.25
2023-06-08T17:13:35.273Z,101186.28
2023-06-08T17:18:37.262Z,101189.28
2023-06-08T17:23:40.499Z,101178.25
2023-06-08T17:28:42.542Z,101180.09
2023-06-08T17:33:44.366Z,101176.72
2023-06-08T17:38:46.495Z,101188.13
2023-06-08T17:43:49.654Z,101195.88
2023-06-08T17:48:51.858Z,101199.22
2023-06-08T17:53:54.013Z,101189.94
2023-06-08T17:58:56.356Z,101195.72
2023-06-08T18:03:58.714Z,101201.91
2023-06-08T18:09:02.418Z,101192.34
2023-06-08T18:14:04.650Z,101182.34
2023-06-08T18:19:06.659Z,101180.34
2023-06-08T18:24:10.340Z,101177.13
2023-06-08T18:29:12.423Z,101171.47
2023-06-08T18:34:17.448Z,101169.50
2023-06-08T18:39:19.563Z,101164.28
2023-06-08T18:44:21.565Z,101158.94
2023-06-08T18:49:23.530Z,101152.59
2023-06-08T18:54:25.779Z,101148.81
2023-06-08T18:59:28.674Z,101155.59
2023-06-08T19:04:30.787Z,101153.44
2023-06-08T19:09:32.926Z,101153.31
2023-06-08T19:14:35.017Z,101144.88
2023-06-08T19:19:39.660Z,101138.69
2023-06-08T19:24:41.981Z,101135.16
2023-06-08T19:29:44.272Z,101130.34
2023-06-08T19:34:46.425Z,101139.06
2023-06-08T19:39:48.516Z,101146.72
2023-06-08T19:44:50.573Z,101168.66
2023-06-08T19:49:52.560Z,101155.72
2023-06-08T19:54:54.771Z,101180.50
2023-06-08T19:59:56.828Z,101198.81
2023-06-08T20:04:58.983Z,101184.19
2023-06-08T20:10:01.122Z,101194.56
2023-06-08T20:15:03.461Z,101202.75
2023-06-08T20:20:06.486Z,101198.53
2023-06-08T20:25:08.979Z,101193.59
2023-06-08T20:30:11.941Z,101189.78
2023-06-08T20:35:14.221Z,101198.41
2023-06-08T20:40:16.308Z,101205.00
2023-06-08T20:45:18.351Z,101210.19
2023-06-08T20:50:20.402Z,101207.25
2023-06-08T20:55:22.784Z,101213.19
2023-06-08T21:00:24.765Z,101203.19
2023-06-08T21:05:31.205Z,101206.84
2023-06-08T21:10:33.593Z,101197.13
2023-06-08T21:15:35.653Z,101179.91
2023-06-08T21:20:37.861Z,101188.09
2023-06-08T21:25:40.003Z,101186.28
2023-06-08T21:30:42.128Z,101173.72
2023-06-08T21:35:49.561Z,101156.81
2023-06-08T21:41:00.181Z,101171.19
2023-06-08T21:46:02.346Z,101175.41
2023-06-08T21:51:04.467Z,101193.16
2023-06-08T21:56:06.460Z,101177.53
2023-06-08T22:01:08.692Z,101179.09
2023-06-08T22:06:11.591Z,101161.03
2023-06-08T22:11:13.596Z,101151.75
2023-06-08T22:16:15.723Z,101147.94
2023-06-08T22:21:19.144Z,101136.09
2023-06-08T22:26:21.152Z,101130.19
2023-06-08T22:31:24.549Z,101142.59
2023-06-08T22:36:26.524Z,101144.44
2023-06-08T22:41:28.906Z,101147.94
2023-06-08T22:46:31.049Z,101155.13
2023-06-08T22:51:35.057Z,101124.53
2023-06-08T22:56:37.164Z,101112.16
2023-06-08T23:01:39.260Z,101100.91
2023-06-08T23:06:41.352Z,101101.22
2023-06-08T23:11:43.606Z,101105.41
2023-06-08T23:16:46.062Z,101117.53
2023-06-08T23:21:48.142Z,101128.66
2023-06-08T23:26:50.266Z,101143.72
2023-06-08T23:31:52.450Z,101144.13
2023-06-08T23:36:54.917Z,101144.44
2023-06-08T23:41:57.026Z,101145.41
2023-06-08T23:46:59.549Z,101138.94
2023-06-08T23:52:01.592Z,101138.94
2023-06-08T23:57:03.900Z,101146.53
